createdAt,value
2022-11-04T00:08:26.177Z,69
2022-11-04T00:10:32.659Z,69
2022-11-04T00:12:44.263Z,69
2022-11-04T00:27:40.218Z,69
2022-11-04T00:29:51.522Z,69
2022-11-04T00:38:12.067Z,69
2022-11-04T00:39:16.511Z,69
2022-11-04T00:40:21.127Z,69
2022-11-04T00:41:26.314Z,69
2022-11-04T00:42:30.399Z,69
2022-11-04T01:24:44.918Z,67
2022-11-04T01:25:49.195Z,67
2022-11-04T01:26:53.806Z,67
2022-11-04T01:27:58.390Z,67
2022-11-04T01:29:03.430Z,67
2022-11-04T02:41:53.334Z,64
2022-11-04T02:42:57.633Z,63
2022-11-04T02:44:01.906Z,63
2022-11-04T02:45:13.949Z,63
2022-11-04T02:46:23.605Z,63
2022-11-04T04:50:20.653Z,63
2022-11-04T04:51:25.004Z,67
2022-11-04T04:52:29.061Z,67
2022-11-04T04:55:11.285Z,67
2022-11-04T04:57:17.860Z,67
2022-11-04T04:59:34.138Z,67
2022-11-04T05:01:40.528Z,67
2022-11-04T05:03:47.026Z,67
2022-11-04T05:25:26.120Z,67
2022-11-04T05:26:30.974Z,67
2022-11-04T05:27:35.896Z,67
2022-11-04T05:28:40.361Z,67
2022-11-04T05:29:45.333Z,67
2022-11-04T05:38:36.733Z,67
2022-11-04T05:40:42.816Z,67
2022-11-04T06:08:08.143Z,67
2022-11-04T06:10:14.513Z,67
2022-11-04T06:22:11.137Z,67
2022-11-04T06:24:17.468Z,67
2022-11-04T06:26:27.801Z,67
2022-11-04T06:41:51.682Z,67
2022-11-04T06:43:56.936Z,67
2022-11-04T06:46:03.648Z,67
2022-11-04T06:55:44.024Z,68
2022-11-04T06:57:50.472Z,68
2022-11-04T07:01:04.935Z,68
2022-11-04T07:02:06.929Z,68
2022-11-04T07:03:11.660Z,68
2022-11-04T07:05:18.025Z,68
2022-11-04T07:17:25.782Z,68
2022-11-04T07:18:30.307Z,68
2022-11-04T07:19:35.847Z,68
2022-11-04T07:20:45.456Z,68
2022-11-04T07:21:49.803Z,68
2022-11-04T07:22:54.359Z,67
2022-11-04T07:23:58.783Z,67
2022-11-04T07:25:02.906Z,68
2022-11-04T07:26:08.703Z,67
2022-11-04T07:27:12.214Z,67
2022-11-04T07:28:16.756Z,68
2022-11-04T07:29:20.863Z,68
2022-11-04T07:30:26.212Z,68
2022-11-04T07:31:30.559Z,68
2022-11-04T07:32:34.691Z,68
2022-11-04T07:33:38.737Z,68
2022-11-04T07:34:43.501Z,68
2022-11-04T07:35:47.928Z,68
2022-11-04T07:36:52.207Z,68
2022-11-04T07:37:56.707Z,68
2022-11-04T07:39:00.751Z,68
2022-11-04T07:40:05.276Z,68
2022-11-04T07:41:10.444Z,68
2022-11-04T07:42:14.888Z,68
2022-11-04T07:43:19.372Z,68
2022-11-04T07:44:23.555Z,68
2022-11-04T07:45:27.775Z,68
2022-11-04T07:46:32.342Z,68
2022-11-04T07:47:36.465Z,69
2022-11-04T07:48:40.599Z,69
2022-11-04T07:49:44.752Z,69
2022-11-04T07:50:49.185Z,69
2022-11-04T07:51:53.492Z,69
2022-11-04T07:52:57.988Z,69
2022-11-04T07:54:02.319Z,69
2022-11-04T07:55:06.475Z,69
2022-11-04T07:56:11.132Z,69
2022-11-04T07:57:15.704Z,69
2022-11-04T07:58:20.243Z,69
2022-11-04T07:59:24.347Z,69
2022-11-04T08:00:28.502Z,69
2022-11-04T08:01:33.041Z,69
2022-11-04T08:02:37.310Z,69
2022-11-04T08:03:41.567Z,69
2022-11-04T08:04:46.075Z,69
2022-11-04T08:05:50.464Z,69
2022-11-04T08:06:57.679Z,69
2022-11-04T08:08:02.119Z,69
2022-11-04T08:09:06.914Z,69
2022-11-04T08:10:11.283Z,69
2022-11-04T08:11:17.584Z,69
2022-11-04T08:12:19.444Z,69
2022-11-04T08:13:23.579Z,69
2022-11-04T08:14:28.192Z,69
2022-11-04T08:15:32.816Z,69
2022-11-04T08:16:37.359Z,69
2022-11-04T08:17:41.403Z,69
2022-11-04T08:18:45.544Z,69
2022-11-04T08:19:49.645Z,68
2022-11-04T08:20:53.771Z,68
2022-11-04T08:21:58.323Z,68
2022-11-04T08:23:02.663Z,68
2022-11-04T08:24:06.811Z,68
2022-11-04T08:25:10.981Z,68
2022-11-04T08:26:15.541Z,68
2022-11-04T08:27:20.086Z,68
2022-11-04T08:28:24.171Z,68
2022-11-04T08:29:28.245Z,68
2022-11-04T08:30:32.869Z,68
2022-11-04T08:31:36.968Z,69
2022-11-04T08:32:41.128Z,69
2022-11-04T08:33:45.637Z,69
2022-11-04T08:34:49.740Z,69
2022-11-04T08:35:53.816Z,69
2022-11-04T08:36:57.891Z,68
2022-11-04T08:38:01.940Z,68
2022-11-04T08:39:10.553Z,68
2022-11-04T08:40:10.527Z,68
2022-11-04T08:41:14.685Z,68
2022-11-04T08:42:19.331Z,68
2022-11-04T08:43:23.794Z,68
2022-11-04T08:44:27.927Z,68
2022-11-04T08:45:33.747Z,69
2022-11-04T08:46:39.254Z,69
2022-11-04T08:47:43.730Z,69
2022-11-04T08:48:47.961Z,69
2022-11-04T08:49:52.557Z,69
2022-11-04T08:50:57.029Z,69
2022-11-04T08:52:01.145Z,69
2022-11-04T08:53:05.551Z,69
2022-11-04T08:54:10.213Z,70
2022-11-04T08:55:14.689Z,70
2022-11-04T08:56:18.740Z,70
2022-11-04T08:57:22.889Z,70
2022-11-04T08:58:27.225Z,70
2022-11-04T08:59:31.618Z,70
2022-11-04T09:00:35.829Z,71
2022-11-04T09:01:40.308Z,71
2022-11-04T09:02:44.866Z,70
2022-11-04T09:03:49.021Z,71
2022-11-04T09:04:53.470Z,71
2022-11-04T09:05:57.642Z,71
2022-11-04T09:07:06.894Z,71
2022-11-04T09:08:06.585Z,71
2022-11-04T09:09:13.858Z,71
2022-11-04T09:10:18.409Z,71
2022-11-04T09:11:23.065Z,71
2022-11-04T09:12:27.648Z,71
2022-11-04T09:13:35.499Z,72
2022-11-04T09:14:37.001Z,71
2022-11-04T09:15:41.558Z,71
2022-11-04T09:16:46.083Z,71
2022-11-04T09:17:51.063Z,71
2022-11-04T09:18:55.074Z,71
2022-11-04T09:19:59.216Z,70
2022-11-04T09:21:03.669Z,70
2022-11-04T09:22:08.370Z,70
2022-11-04T09:23:12.634Z,70
2022-11-04T09:24:17.039Z,70
2022-11-04T09:25:21.694Z,70
2022-11-04T09:26:26.027Z,70
2022-11-04T09:27:30.225Z,69
2022-11-04T09:28:34.894Z,69
2022-11-04T09:29:39.338Z,69
2022-11-04T09:30:43.460Z,69
2022-11-04T09:31:47.541Z,69
2022-11-04T09:32:52.961Z,69
2022-11-04T09:33:56.332Z,68
2022-11-04T09:35:00.729Z,68
2022-11-04T09:36:05.189Z,67
2022-11-04T09:37:09.788Z,67
2022-11-04T09:38:14.532Z,68
2022-11-04T09:39:18.937Z,68
2022-11-04T09:40:23.603Z,68
2022-11-04T09:41:28.137Z,68
2022-11-04T09:42:40.346Z,68
2022-11-04T09:43:50.139Z,68
2022-11-04T09:46:06.726Z,67
2022-11-04T09:47:11.473Z,67
2022-11-04T09:48:15.929Z,67
2022-11-04T09:49:19.965Z,67
2022-11-04T09:50:24.597Z,67
2022-11-04T09:51:52.941Z,67
2022-11-04T09:52:36.273Z,67
2022-11-04T09:53:40.613Z,67
2022-11-04T09:54:47.382Z,66
2022-11-04T09:55:57.261Z,66
2022-11-04T09:57:01.859Z,66
2022-11-04T09:58:06.356Z,66
2022-11-04T09:59:10.992Z,66
2022-11-04T10:00:15.591Z,66
2022-11-04T10:01:20.162Z,66
2022-11-04T10:02:24.134Z,66
2022-11-04T10:03:33.939Z,66
2022-11-04T10:04:43.540Z,66
2022-11-04T10:05:50.769Z,66
2022-11-04T10:07:02.867Z,66
2022-11-04T10:08:07.537Z,66
2022-11-04T10:09:22.368Z,66
2022-11-04T10:10:34.366Z,66
2022-11-04T10:11:44.202Z,66
2022-11-04T10:12:53.965Z,66
2022-11-04T10:14:06.556Z,65
2022-11-04T10:15:19.243Z,65
2022-11-04T10:16:31.397Z,66
2022-11-04T10:17:41.181Z,65
2022-11-04T10:18:55.897Z,65
2022-11-04T10:20:10.784Z,64
2022-11-04T10:21:18.148Z,65
2022-11-04T10:22:25.396Z,65
2022-11-04T10:23:33.245Z,65
2022-11-04T10:24:42.784Z,64
2022-11-04T10:25:57.482Z,64
2022-11-04T10:27:04.479Z,64
2022-11-04T10:28:17.141Z,64
2022-11-04T10:29:21.291Z,64
2022-11-04T10:30:34.059Z,64
2022-11-04T10:31:38.690Z,65
2022-11-04T10:32:43.301Z,65
2022-11-04T10:33:52.881Z,65
2022-11-04T10:34:56.953Z,65
2022-11-04T10:36:06.580Z,65
2022-11-04T10:37:11.145Z,65
2022-11-04T10:38:15.313Z,65
2022-11-04T10:39:30.124Z,65
2022-11-04T10:40:34.779Z,65
2022-11-04T10:41:38.821Z,65
2022-11-04T10:42:43.406Z,65
2022-11-04T10:43:47.976Z,66
2022-11-04T10:44:52.465Z,65
2022-11-04T10:45:56.650Z,66
2022-11-04T10:47:08.680Z,66
2022-11-04T10:48:23.460Z,66
2022-11-04T10:49:33.240Z,66
2022-11-04T10:50:42.857Z,66
2022-11-04T10:51:50.133Z,66
2022-11-04T10:52:54.768Z,65
2022-11-04T10:54:09.340Z,66
2022-11-04T10:55:13.853Z,66
2022-11-04T10:56:26.213Z,66
2022-11-04T10:57:41.088Z,66
2022-11-04T10:58:45.450Z,66
2022-11-04T10:59:49.661Z,66
2022-11-04T11:01:00.460Z,66
2022-11-04T11:02:14.969Z,66
2022-11-04T11:03:18.985Z,66
2022-11-04T11:04:26.125Z,66
2022-11-04T11:05:33.324Z,66
2022-11-04T11:06:37.876Z,66
2022-11-04T11:07:42.082Z,66
2022-11-04T11:08:46.640Z,66
2022-11-04T11:09:53.728Z,65
2022-11-04T11:10:55.267Z,65
2022-11-04T11:11:59.457Z,66
2022-11-04T11:13:03.843Z,66
2022-11-04T11:14:08.956Z,66
2022-11-04T11:15:18.661Z,66
2022-11-04T11:16:27.993Z,66
2022-11-04T11:17:32.743Z,66
2022-11-04T11:18:37.021Z,65
2022-11-04T11:19:41.608Z,66
2022-11-04T11:20:48.769Z,65
2022-11-04T11:21:53.356Z,66
2022-11-04T11:23:01.991Z,66
2022-11-04T11:24:01.576Z,66
2022-11-04T11:25:06.169Z,66
2022-11-04T11:26:13.697Z,66
2022-11-04T11:27:20.729Z,65
2022-11-04T11:28:25.426Z,65
2022-11-04T11:29:29.656Z,65
2022-11-04T11:30:34.652Z,65
2022-11-04T11:31:44.361Z,65
2022-11-04T11:32:48.956Z,65
2022-11-04T11:33:53.572Z,65
2022-11-04T11:34:58.128Z,64
2022-11-04T11:36:02.812Z,64
2022-11-04T11:37:10.520Z,64
2022-11-04T11:38:20.628Z,64
2022-11-04T11:39:28.164Z,65
2022-11-04T11:40:32.624Z,65
2022-11-04T11:41:41.068Z,65
2022-11-04T11:42:49.052Z,65
2022-11-04T11:43:54.075Z,65
2022-11-04T11:45:08.794Z,65
2022-11-04T11:46:13.616Z,65
2022-11-04T11:47:25.782Z,65
2022-11-04T11:48:30.212Z,65
2022-11-04T11:49:39.468Z,65
2022-11-04T11:50:43.976Z,66
2022-11-04T11:51:48.649Z,66
2022-11-04T11:52:53.325Z,66
2022-11-04T11:53:57.824Z,66
2022-11-04T11:55:02.460Z,66
2022-11-04T11:56:17.081Z,66
2022-11-04T11:57:25.587Z,65
2022-11-04T12:00:56.845Z,66
2022-11-04T12:02:02.546Z,66
2022-11-04T12:03:18.166Z,66
2022-11-04T12:10:07.345Z,66
2022-11-04T12:11:14.836Z,66
2022-11-04T12:12:21.861Z,66
2022-11-04T12:13:31.900Z,66
2022-11-04T12:14:44.802Z,67
2022-11-04T12:15:56.474Z,66
2022-11-04T12:17:06.292Z,66
2022-11-04T12:18:13.354Z,66
2022-11-04T12:19:28.275Z,66
2022-11-04T12:20:38.452Z,67
2022-11-04T12:21:53.116Z,67
2022-11-04T12:23:02.796Z,66
2022-11-04T12:24:12.580Z,66
2022-11-04T12:25:16.992Z,66
2022-11-04T12:26:29.272Z,66
2022-11-04T12:27:38.908Z,66
2022-11-04T12:28:48.645Z,67
2022-11-04T12:29:58.300Z,66
2022-11-04T12:31:05.901Z,66
2022-11-04T12:32:15.552Z,66
2022-11-04T12:33:30.297Z,66
2022-11-04T12:34:40.157Z,66
2022-11-04T12:35:54.789Z,66
2022-11-04T12:37:07.807Z,67
2022-11-04T12:38:20.237Z,67
2022-11-04T12:39:34.892Z,67
2022-11-04T12:40:54.599Z,67
2022-11-04T12:43:09.297Z,67
2022-11-04T12:44:18.635Z,67
2022-11-04T12:45:28.960Z,67
2022-11-04T12:46:41.805Z,68
2022-11-04T12:47:54.321Z,67
2022-11-04T12:49:06.081Z,67
2022-11-04T12:50:16.256Z,68
2022-11-04T12:51:31.056Z,68
2022-11-04T12:52:38.275Z,68
2022-11-04T12:53:50.446Z,68
2022-11-04T12:54:54.431Z,68
2022-11-04T12:56:09.205Z,68
2022-11-04T12:57:13.776Z,68
2022-11-04T12:58:23.587Z,68
2022-11-04T12:59:38.335Z,67
2022-11-04T13:00:48.043Z,68
2022-11-04T13:01:52.825Z,68
2022-11-04T13:02:57.169Z,68
2022-11-04T13:04:01.787Z,68
2022-11-04T13:05:11.345Z,68
2022-11-04T13:06:23.707Z,68
2022-11-04T13:07:28.327Z,68
2022-11-04T13:08:40.451Z,68
2022-11-04T13:09:50.765Z,68
2022-11-04T13:10:55.438Z,68
2022-11-04T13:11:59.948Z,68
2022-11-04T13:13:04.495Z,68
2022-11-04T13:14:09.051Z,68
2022-11-04T13:15:13.603Z,68
2022-11-04T13:16:18.215Z,68
2022-11-04T13:17:22.881Z,68
2022-11-04T13:18:27.482Z,68
2022-11-04T13:19:31.991Z,68
2022-11-04T13:20:44.211Z,69
2022-11-04T13:21:48.403Z,69
2022-11-04T13:22:52.978Z,69
2022-11-04T13:23:57.483Z,69
2022-11-04T13:25:08.041Z,69
2022-11-04T13:26:22.911Z,69
2022-11-04T13:27:27.530Z,69
2022-11-04T13:28:32.226Z,69
2022-11-04T13:29:36.639Z,68
2022-11-04T13:30:40.746Z,69
2022-11-04T13:31:53.106Z,69
2022-11-04T13:33:00.899Z,69
2022-11-04T13:34:13.595Z,69
2022-11-04T13:35:17.923Z,69
2022-11-04T13:36:30.214Z,69
2022-11-04T13:37:34.698Z,69
2022-11-04T13:38:41.886Z,69
2022-11-04T13:39:46.470Z,69
2022-11-04T13:40:51.130Z,69
2022-11-04T13:42:05.692Z,70
2022-11-04T13:43:10.580Z,69
2022-11-04T13:44:25.076Z,69
2022-11-04T13:45:29.691Z,70
2022-11-04T13:46:34.250Z,70
2022-11-04T13:47:38.443Z,70
2022-11-04T13:48:49.211Z,70
2022-11-04T13:49:58.748Z,70
2022-11-04T13:51:02.898Z,70
2022-11-04T13:52:07.279Z,69
2022-11-04T13:53:11.746Z,69
2022-11-04T13:54:15.607Z,69
2022-11-04T13:55:27.794Z,70
2022-11-04T13:56:33.694Z,70
2022-11-04T13:57:39.047Z,70
2022-11-04T13:58:48.766Z,70
2022-11-04T13:59:52.799Z,70
2022-11-04T14:01:07.495Z,70
2022-11-04T14:02:14.741Z,70
2022-11-04T14:03:21.804Z,70
2022-11-04T14:04:29.415Z,70
2022-11-04T14:05:33.547Z,71
2022-11-04T14:06:37.650Z,71
2022-11-04T14:07:47.378Z,71
2022-11-04T14:08:57.025Z,72
2022-11-04T14:10:11.699Z,71
2022-11-04T14:11:26.506Z,72
2022-11-04T14:12:31.256Z,72
2022-11-04T14:13:35.674Z,72
2022-11-04T14:14:42.822Z,72
2022-11-04T14:15:47.082Z,72
2022-11-04T14:17:01.715Z,72
2022-11-04T14:18:10.566Z,72
2022-11-04T14:19:10.692Z,72
2022-11-04T14:20:25.509Z,72
2022-11-04T14:21:29.634Z,72
2022-11-04T14:22:34.414Z,72
2022-11-04T14:23:43.890Z,72
2022-11-04T14:24:53.603Z,73
2022-11-04T14:25:57.694Z,73
2022-11-04T14:27:04.890Z,73
2022-11-04T14:28:09.327Z,73
2022-11-04T14:29:16.511Z,73
2022-11-04T14:30:24.123Z,73
2022-11-04T14:31:31.265Z,73
2022-11-04T14:32:38.483Z,72
2022-11-04T14:33:42.990Z,72
2022-11-04T14:34:52.582Z,72
2022-11-04T14:35:59.277Z,73
2022-11-04T14:37:13.930Z,73
2022-11-04T14:38:23.634Z,73
2022-11-04T14:39:30.790Z,73
2022-11-04T14:40:40.515Z,73
2022-11-04T14:41:47.678Z,73
2022-11-04T14:42:57.319Z,73
2022-11-04T14:44:01.407Z,73
2022-11-04T14:45:08.410Z,73
2022-11-04T14:46:12.582Z,73
2022-11-04T14:47:19.678Z,73
2022-11-04T14:48:27.310Z,73
2022-11-04T14:49:31.513Z,73
2022-11-04T14:50:41.111Z,73
2022-11-04T14:51:45.884Z,73
2022-11-04T14:52:50.376Z,72
2022-11-04T14:54:00.015Z,73
2022-11-04T14:55:09.726Z,73
2022-11-04T14:56:23.726Z,73
2022-11-04T14:57:24.519Z,73
2022-11-04T14:58:28.946Z,73
2022-11-04T14:59:33.130Z,73
2022-11-04T15:00:37.883Z,73
2022-11-04T15:01:50.564Z,73
2022-11-04T15:02:56.122Z,74
2022-11-04T15:04:11.904Z,74
2022-11-04T15:05:21.091Z,74
2022-11-04T15:06:35.131Z,74
2022-11-04T15:07:33.248Z,74
2022-11-04T15:08:40.416Z,74
2022-11-04T15:09:44.502Z,74
2022-11-04T15:10:48.655Z,74
2022-11-04T15:11:53.315Z,74
2022-11-04T15:13:03.002Z,74
2022-11-04T15:14:07.703Z,74
2022-11-04T15:15:14.526Z,74
2022-11-04T15:16:30.307Z,74
2022-11-04T15:17:35.006Z,75
2022-11-04T15:18:39.582Z,74
2022-11-04T15:19:44.229Z,75
2022-11-04T15:20:48.642Z,75
2022-11-04T15:21:59.043Z,75
2022-11-04T15:23:03.190Z,75
2022-11-04T15:24:07.498Z,75
2022-11-04T15:25:11.916Z,75
2022-11-04T15:26:16.219Z,75
2022-11-04T15:27:27.586Z,75
2022-11-04T15:28:32.393Z,75
2022-11-04T15:29:36.914Z,75
2022-11-04T15:30:41.737Z,75
2022-11-04T15:31:46.508Z,75
2022-11-04T15:32:56.156Z,75
2022-11-04T15:34:00.575Z,75
2022-11-04T15:35:04.764Z,75
2022-11-04T15:36:09.221Z,75
2022-11-04T15:37:19.436Z,75
2022-11-04T15:38:24.269Z,75
2022-11-04T15:39:28.540Z,75
2022-11-04T15:40:33.133Z,75
2022-11-04T15:41:38.524Z,75
2022-11-04T15:42:47.025Z,75
2022-11-04T15:43:51.527Z,75
2022-11-04T15:44:56.439Z,75
2022-11-04T15:46:00.840Z,76
2022-11-04T15:47:07.967Z,76
2022-11-04T15:48:18.532Z,76
2022-11-04T15:49:30.728Z,76
2022-11-04T15:50:37.844Z,76
2022-11-04T15:51:42.016Z,77
2022-11-04T15:52:46.616Z,77
2022-11-04T15:53:54.224Z,77
2022-11-04T15:54:58.300Z,77
2022-11-04T15:56:02.465Z,77
2022-11-04T15:57:06.985Z,77
2022-11-04T15:58:21.636Z,77
2022-11-04T15:59:26.164Z,77
2022-11-04T16:00:33.072Z,77
2022-11-04T16:01:37.823Z,78
2022-11-04T16:02:47.396Z,78
2022-11-04T16:03:56.933Z,78
2022-11-04T16:05:01.073Z,78
2022-11-04T16:06:08.105Z,78
2022-11-04T16:07:12.640Z,78
2022-11-04T16:08:16.712Z,79
2022-11-04T16:09:21.095Z,79
2022-11-04T16:10:28.040Z,79
2022-11-04T16:11:35.353Z,79
2022-11-04T16:12:39.734Z,79
2022-11-04T16:13:43.936Z,79
2022-11-04T16:14:48.613Z,79
2022-11-04T16:15:53.184Z,80
2022-11-04T16:16:57.872Z,79
2022-11-04T16:18:02.292Z,79
2022-11-04T16:19:06.448Z,80
2022-11-04T16:20:10.860Z,80
2022-11-04T16:21:15.568Z,80
2022-11-04T16:22:30.196Z,80
2022-11-04T16:23:37.509Z,80
2022-11-04T16:24:45.285Z,80
2022-11-04T16:25:49.909Z,80
2022-11-04T16:27:00.481Z,80
2022-11-04T16:28:05.107Z,80
2022-11-04T16:29:09.569Z,80
2022-11-04T16:30:17.172Z,80
2022-11-04T16:31:21.716Z,80
2022-11-04T16:32:28.923Z,80
2022-11-04T16:33:43.713Z,80
2022-11-04T16:34:47.844Z,80
2022-11-04T16:35:52.348Z,80
2022-11-04T16:36:56.612Z,80
2022-11-04T16:38:01.440Z,80
2022-11-04T16:39:05.874Z,80
2022-11-04T16:40:10.324Z,80
2022-11-04T16:41:14.868Z,80
2022-11-04T16:42:19.447Z,80
2022-11-04T16:43:24.055Z,80
2022-11-04T16:44:28.823Z,80
2022-11-04T16:45:33.417Z,80
2022-11-04T16:46:37.912Z,80
2022-11-04T16:47:43.124Z,80
2022-11-04T16:48:47.652Z,80
2022-11-04T16:49:52.239Z,80
2022-11-04T16:51:01.793Z,80
2022-11-04T16:52:06.211Z,80
2022-11-04T16:53:10.797Z,80
2022-11-04T16:54:15.156Z,80
2022-11-04T16:55:19.709Z,81
2022-11-04T16:56:24.319Z,81
2022-11-04T16:57:28.879Z,81
2022-11-04T16:58:33.595Z,81
2022-11-04T16:59:38.259Z,81
2022-11-04T17:00:42.689Z,81
2022-11-04T17:01:47.552Z,81
2022-11-04T17:02:51.923Z,81
2022-11-04T17:03:56.464Z,81
2022-11-04T17:05:01.240Z,81
2022-11-04T17:06:05.875Z,81
2022-11-04T17:07:10.360Z,81
2022-11-04T17:08:14.837Z,81
2022-11-04T17:09:22.023Z,81
2022-11-04T17:10:26.809Z,81
2022-11-04T17:11:31.199Z,81
2022-11-04T17:12:35.968Z,82
2022-11-04T17:13:40.457Z,82
2022-11-04T17:14:44.888Z,82
2022-11-04T17:15:49.476Z,82
2022-11-04T17:16:54.224Z,82
2022-11-04T17:18:00.216Z,82
2022-11-04T17:19:08.982Z,82
2022-11-04T17:20:16.794Z,82
2022-11-04T17:21:22.118Z,82
2022-11-04T17:22:29.234Z,82
2022-11-04T17:23:35.511Z,83
2022-11-04T17:24:41.503Z,83
2022-11-04T17:25:46.468Z,83
2022-11-04T17:26:50.618Z,83
2022-11-04T17:27:55.750Z,83
2022-11-04T17:29:00.554Z,83
2022-11-04T17:30:04.967Z,84
2022-11-04T17:31:09.806Z,84
2022-11-04T17:32:14.147Z,84
2022-11-04T17:33:18.917Z,84
2022-11-04T17:34:23.299Z,84
2022-11-04T17:35:27.674Z,84
2022-11-04T17:36:31.872Z,84
2022-11-04T17:37:36.600Z,84
2022-11-04T17:38:41.245Z,84
2022-11-04T17:39:45.910Z,84
2022-11-04T17:40:50.374Z,84
2022-11-04T17:41:59.976Z,84
2022-11-04T17:43:12.131Z,84
2022-11-04T17:44:19.230Z,84
2022-11-04T17:45:23.504Z,85
2022-11-04T17:46:27.911Z,84
2022-11-04T17:47:35.127Z,85
2022-11-04T17:48:39.766Z,84
2022-11-04T17:49:44.578Z,84
2022-11-04T17:50:49.263Z,84
2022-11-04T17:51:53.737Z,84
2022-11-04T17:52:58.006Z,85
2022-11-04T17:54:02.231Z,84
2022-11-04T17:55:08.239Z,84
2022-11-04T17:56:11.486Z,84
2022-11-04T17:57:15.864Z,84
2022-11-04T17:58:20.394Z,85
2022-11-04T17:59:25.025Z,84
2022-11-04T18:00:29.986Z,84
2022-11-04T18:01:34.621Z,84
2022-11-04T18:02:43.083Z,84
2022-11-04T18:03:47.514Z,84
2022-11-04T18:04:52.219Z,85
2022-11-04T18:05:57.079Z,84
2022-11-04T18:07:03.394Z,84
2022-11-04T18:08:08.800Z,84
2022-11-04T18:09:13.466Z,84
2022-11-04T18:10:18.119Z,84
2022-11-04T18:11:22.737Z,84
2022-11-04T18:12:32.423Z,84
2022-11-04T18:13:39.587Z,84
2022-11-04T18:14:44.310Z,84
2022-11-04T18:15:49.002Z,84
2022-11-04T18:16:53.358Z,84
2022-11-04T18:17:58.767Z,84
2022-11-04T18:19:03.025Z,84
2022-11-04T18:20:13.280Z,84
2022-11-04T18:21:13.382Z,84
2022-11-04T18:22:18.294Z,85
2022-11-04T18:23:23.674Z,84
2022-11-04T18:24:28.611Z,85
2022-11-04T18:25:34.149Z,85
2022-11-04T18:26:38.946Z,85
2022-11-04T18:27:43.567Z,85
2022-11-04T18:28:47.847Z,85
2022-11-04T18:29:52.206Z,85
2022-11-04T18:30:56.710Z,85
2022-11-04T18:32:01.196Z,85
2022-11-04T18:33:05.842Z,85
2022-11-04T18:34:10.249Z,85
2022-11-04T18:35:14.909Z,85
2022-11-04T18:36:19.706Z,85
2022-11-04T18:37:24.118Z,85
2022-11-04T18:38:28.818Z,85
2022-11-04T18:39:33.213Z,85
2022-11-04T18:40:38.670Z,85
2022-11-04T18:41:44.279Z,85
2022-11-04T18:42:48.791Z,85
2022-11-04T18:43:53.150Z,85
2022-11-04T18:44:57.851Z,85
2022-11-04T18:46:02.451Z,85
2022-11-04T18:47:07.093Z,85
2022-11-04T18:48:11.867Z,85
2022-11-04T18:49:15.954Z,85
2022-11-04T18:50:20.077Z,85
2022-11-04T18:51:24.098Z,85
2022-11-04T18:52:28.438Z,85
2022-11-04T18:53:33.074Z,85
2022-11-04T18:54:37.662Z,85
2022-11-04T18:55:44.647Z,85
2022-11-04T18:56:48.872Z,85
2022-11-04T18:57:53.414Z,85
2022-11-04T18:58:57.922Z,85
2022-11-04T19:00:02.692Z,86
2022-11-04T19:01:07.606Z,86
2022-11-04T19:02:12.170Z,85
2022-11-04T19:03:21.943Z,85
2022-11-04T19:04:26.407Z,85
2022-11-04T19:05:30.910Z,85
2022-11-04T19:06:35.470Z,86
2022-11-04T19:07:39.663Z,86
2022-11-04T19:08:46.790Z,86
2022-11-04T19:09:48.923Z,86
2022-11-04T19:11:00.956Z,86
2022-11-04T19:11:57.543Z,86
2022-11-04T19:13:07.319Z,86
2022-11-04T19:14:16.847Z,86
2022-11-04T19:15:21.436Z,86
2022-11-04T19:16:26.051Z,86
2022-11-04T19:17:30.718Z,86
2022-11-04T19:18:35.390Z,86
2022-11-04T19:19:39.798Z,86
2022-11-04T19:20:44.755Z,86
2022-11-04T19:21:49.270Z,86
2022-11-04T19:22:53.853Z,86
2022-11-04T19:23:58.310Z,86
2022-11-04T19:25:02.878Z,86
2022-11-04T19:26:07.459Z,86
2022-11-04T19:27:15.071Z,86
2022-11-04T19:28:34.991Z,86
2022-11-04T19:29:24.063Z,86
2022-11-04T19:30:28.455Z,86
2022-11-04T19:31:33.123Z,86
2022-11-04T19:32:37.654Z,86
2022-11-04T19:33:41.932Z,86
2022-11-04T19:34:46.346Z,86
2022-11-04T19:35:51.003Z,86
2022-11-04T19:36:55.734Z,86
2022-11-04T19:38:00.134Z,86
2022-11-04T19:39:04.578Z,86
2022-11-04T19:40:09.091Z,87
2022-11-04T19:41:13.830Z,87
2022-11-04T19:42:23.438Z,87
2022-11-04T19:43:33.059Z,87
2022-11-04T19:44:37.951Z,88
2022-11-04T19:45:42.159Z,87
2022-11-04T19:46:46.954Z,87
2022-11-04T19:47:51.510Z,87
2022-11-04T19:48:56.031Z,88
2022-11-04T19:50:00.237Z,88
2022-11-04T19:51:04.635Z,87
2022-11-04T19:52:08.971Z,87
2022-11-04T19:53:13.323Z,87
2022-11-04T19:54:18.034Z,87
2022-11-04T19:55:22.652Z,87
2022-11-04T19:56:27.331Z,87
2022-11-04T19:57:31.703Z,86
2022-11-04T19:58:35.834Z,86
2022-11-04T19:59:40.438Z,86
2022-11-04T20:00:45.262Z,86
2022-11-04T20:01:49.702Z,86
2022-11-04T20:02:53.926Z,87
2022-11-04T20:03:58.774Z,87
2022-11-04T20:05:03.402Z,87
2022-11-04T20:06:07.975Z,87
2022-11-04T20:07:12.622Z,87
2022-11-04T20:08:17.359Z,87
2022-11-04T20:09:22.058Z,87
2022-11-04T20:10:26.463Z,87
2022-11-04T20:11:31.163Z,87
2022-11-04T20:12:35.594Z,87
2022-11-04T20:13:45.740Z,88
2022-11-04T20:14:50.586Z,87
2022-11-04T20:15:54.891Z,87
2022-11-04T20:16:59.074Z,88
2022-11-04T20:18:04.922Z,87
2022-11-04T20:19:09.275Z,87
2022-11-04T20:20:13.872Z,87
2022-11-04T20:21:18.319Z,87
2022-11-04T20:22:22.556Z,87
2022-11-04T20:23:27.978Z,87
2022-11-04T20:24:32.723Z,87
2022-11-04T20:25:37.347Z,87
2022-11-04T20:26:41.816Z,87
2022-11-04T20:27:45.977Z,87
2022-11-04T20:28:50.562Z,87
2022-11-04T20:29:55.138Z,87
2022-11-04T20:30:59.741Z,87
2022-11-04T20:32:04.382Z,87
2022-11-04T20:33:08.915Z,88
2022-11-04T20:34:13.466Z,87
2022-11-04T20:35:18.170Z,87
2022-11-04T20:36:23.131Z,87
2022-11-04T20:37:27.803Z,87
2022-11-04T20:38:32.742Z,88
2022-11-04T20:39:37.018Z,88
2022-11-04T20:40:41.574Z,87
2022-11-04T20:41:46.211Z,88
2022-11-04T20:42:50.787Z,88
2022-11-04T20:43:55.478Z,88
2022-11-04T20:45:00.055Z,89
2022-11-04T20:46:04.667Z,88
2022-11-04T20:47:12.195Z,88
2022-11-04T20:48:16.755Z,88
2022-11-04T20:49:21.271Z,89
2022-11-04T20:50:25.569Z,88
2022-11-04T20:51:29.964Z,88
2022-11-04T20:52:34.223Z,88
2022-11-04T20:53:38.774Z,89
2022-11-04T20:54:43.339Z,88
2022-11-04T20:55:47.795Z,88
2022-11-04T20:56:52.120Z,88
2022-11-04T20:57:57.052Z,89
2022-11-04T20:59:01.179Z,88
2022-11-04T21:00:05.363Z,88
2022-11-04T21:01:10.127Z,88
2022-11-04T21:02:20.761Z,88
2022-11-04T21:03:25.042Z,88
2022-11-04T21:04:34.894Z,88
2022-11-04T21:05:34.313Z,87
2022-11-04T21:06:39.119Z,87
2022-11-04T21:07:43.618Z,87
2022-11-04T21:08:48.282Z,87
2022-11-04T21:09:52.905Z,87
2022-11-04T21:10:57.286Z,88
2022-11-04T21:12:01.437Z,87
2022-11-04T21:13:06.126Z,87
2022-11-04T21:14:10.706Z,87
2022-11-04T21:15:15.402Z,87
2022-11-04T21:16:25.106Z,87
2022-11-04T21:17:29.730Z,88
2022-11-04T21:18:34.060Z,88
2022-11-04T21:19:38.826Z,87
2022-11-04T21:20:43.528Z,88
2022-11-04T21:21:47.918Z,88
2022-11-04T21:22:52.560Z,89
2022-11-04T21:23:57.191Z,88
2022-11-04T21:25:01.782Z,88
2022-11-04T21:26:06.394Z,88
2022-11-04T21:27:11.138Z,88
2022-11-04T21:28:15.506Z,88
2022-11-04T21:29:20.032Z,88
2022-11-04T21:30:27.759Z,88
2022-11-04T21:31:29.118Z,88
2022-11-04T21:32:33.796Z,88
2022-11-04T21:33:38.398Z,88
2022-11-04T21:34:43.021Z,88
2022-11-04T21:35:47.622Z,88
2022-11-04T21:36:52.130Z,88
2022-11-04T21:37:57.035Z,88
2022-11-04T21:39:01.382Z,89
2022-11-04T21:40:05.929Z,89
2022-11-04T21:41:10.555Z,88
2022-11-04T21:42:15.120Z,88
2022-11-04T21:43:19.658Z,88
2022-11-04T21:44:24.290Z,88
2022-11-04T21:45:28.826Z,88
2022-11-04T21:46:33.370Z,88
2022-11-04T21:47:37.974Z,88
2022-11-04T21:48:42.603Z,88
2022-11-04T21:49:47.229Z,88
2022-11-04T21:50:51.749Z,88
2022-11-04T21:51:55.934Z,88
2022-11-04T21:53:00.537Z,88
2022-11-04T21:54:05.125Z,88
2022-11-04T21:55:09.748Z,88
2022-11-04T21:56:14.089Z,87
2022-11-04T21:57:20.821Z,87
2022-11-04T21:58:25.405Z,87
2022-11-04T21:59:29.874Z,87
2022-11-04T22:00:34.042Z,87
2022-11-04T22:01:38.749Z,87
2022-11-04T22:02:43.536Z,87
2022-11-04T22:03:47.947Z,88
2022-11-04T22:04:52.481Z,87
2022-11-04T22:05:57.094Z,88
2022-11-04T22:07:04.470Z,87
2022-11-04T22:08:08.714Z,88
2022-11-04T22:09:18.297Z,88
2022-11-04T22:10:22.977Z,88
2022-11-04T22:11:27.454Z,88
2022-11-04T22:12:31.671Z,88
2022-11-04T22:13:36.515Z,87
2022-11-04T22:14:40.806Z,88